Latest Weather Observations for Canberra

IDN60801

Issued at 10:23 am EST Tuesday 26 May 2020 (issued every 10 minutes, with the page automatically refreshed every 10 minutes)

About weather observations | Map of weather stations | Latest weather observations for NSW | Other Formats
Station Details ID: 070351 Name: CANBERRA AIRPORT Lat: -35.31 Lon: 149.20 Height: 577.05 m
Data from the previous 72 hours. | See also: Recent months at Canberra
Date/Time
EST
Temp
°C
App
Temp
°C
Dew
Point
°C
Rel
Hum
%
Delta-T
°C
Wind Press
QNH
hPa
Press
MSL
hPa
Rain since
9am
mm
Dir  Spd
km/h
Gust
km/h
Spd
kts
Gust
kts
26/10:00am 12.3 8.0 7.0 70 2.6 S 19 30 10 16 1026.0 1026.3 0.0
26/09:30am 11.6 7.0 6.7 72 2.4 S 20 26 11 14 1026.0 1026.3 0.0
26/09:00am 11.2 7.6 6.9 75 2.1 S 15 19 8 10 1025.8 1026.1 0.0
26/08:30am 10.2 6.5 6.5 78 1.8 S 15 19 8 10 1025.5 1025.8 0.0
26/08:00am 9.3 5.6 6.2 81 1.5 S 15 17 8 9 1025.2 1025.5 0.0
26/07:30am 8.6 5.2 5.9 83 1.3 SSW 13 15 7 8 1024.9 1025.2 0.0
26/07:00am 8.4 5.0 5.7 83 1.3 S 13 15 7 8 1024.6 1024.9 0.0
26/06:30am 8.2 5.1 5.7 84 1.2 S 11 13 6 7 1024.4 1024.7 0.0
26/06:00am 8.3 4.5 5.6 83 1.3 S 15 17 8 9 1024.2 1024.5 0.0
26/05:30am 8.2 5.1 5.5 83 1.3 SSW 11 15 6 8 1024.2 1024.5 0.0
26/05:13am 8.1 5.4 5.4 83 1.3 S 9 11 5 6 1024.2 1024.5 0.0
26/05:00am 8.1 5.8 5.6 84 1.2 S 7 9 4 5 1024.1 1024.4 0.0
26/04:30am 8.2 5.5 5.7 84 1.2 SSE 9 9 5 5 1024.1 1024.4 0.0
26/04:00am 7.7 5.0 5.5 86 1.0 S 9 11 5 6 1024.2 1024.5 0.0
26/03:30am 6.4 3.7 5.4 93 0.5 S 9 9 5 5 1024.3 1024.6 0.0
26/03:00am 4.5 1.3 3.3 92 0.5 S 9 11 5 6 1024.3 1024.6 0.0
26/02:30am 4.9 3.5 3.6 91 0.6 CALM 0 0 0 0 1024.4 1024.7 0.0
26/02:00am 5.2 3.3 3.1 86 0.9 SSE 2 7 1 4 1024.3 1024.6 0.0
26/01:30am 5.2 3.0 3.1 86 0.9 SSE 4 11 2 6 1024.4 1024.7 0.0
26/01:00am 6.0 2.8 3.2 82 1.2 SE 9 11 5 6 1024.4 1024.7 0.0
26/12:30am 7.0 3.1 3.6 79 1.5 SSE 13 17 7 9 1024.4 1024.7 0.0
26/12:00am 7.0 3.2 3.8 80 1.4 SSE 13 17 7 9 1024.4 1024.7 0.0
 
Date/Time
EST
Temp
°C
App
Temp
°C
Dew
Point
°C
Rel
Hum
%
Delta-T
°C
Wind Press
QNH
hPa
Press
MSL
hPa
Rain since
9am
mm
Dir  Spd
km/h
Gust
km/h
Spd
kts
Gust
kts
25/11:30pm 7.4 2.7 3.3 75 1.8 S 17 24 9 13 1024.4 1024.7 0.0
25/11:00pm 7.8 3.3 4.0 77 1.7 S 17 20 9 11 1024.4 1024.7 0.0
25/10:30pm 8.8 4.3 4.4 74 2.0 S 17 24 9 13 1024.5 1024.8 0.0
25/10:00pm 9.1 3.8 4.9 75 1.9 SSE 22 28 12 15 1024.4 1024.7 0.0
25/09:30pm 9.3 4.0 4.9 74 2.0 S 22 30 12 16 1024.4 1024.7 0.0
25/09:00pm 9.1 3.4 5.1 76 1.8 S 24 32 13 17 1024.3 1024.6 0.0
25/08:30pm 9.0 4.7 5.2 77 1.8 S 17 28 9 15 1024.0 1024.3 0.0
25/08:00pm 9.4 6.0 5.9 79 1.7 SSE 13 19 7 10 1023.6 1023.8 0.0
25/07:30pm 10.0 6.7 6.2 77 1.8 S 13 19 7 10 1023.2 1023.5 0.0
25/07:00pm 10.4 6.0 6.4 76 1.9 S 19 28 10 15 1022.9 1023.2 0.0
25/06:30pm 10.1 5.1 6.4 78 1.8 S 22 30 12 16 1022.7 1023.0 0.0
25/06:00pm 10.5 5.9 6.5 76 1.9 S 20 32 11 17 1022.2 1022.4 0.0
25/05:30pm 10.1 6.0 6.3 77 1.8 S 17 22 9 12 1021.9 1022.1 0.0
25/05:00pm 10.7 6.1 6.3 74 2.1 S 20 26 11 14 1021.7 1021.9 0.0
25/04:30pm 11.1 5.3 6.3 72 2.3 S 26 33 14 18 1021.5 1021.8 0.0
25/04:00pm 11.4 4.9 6.3 71 2.5 SSW 30 39 16 21 1021.5 1021.8 0.0
25/03:30pm 11.9 4.9 6.2 68 2.8 SSW 32 41 17 22 1021.4 1021.7 0.0
25/03:00pm 11.7 4.7 6.0 68 2.7 SSW 32 37 17 20 1021.3 1021.6 0.0
25/02:30pm 12.2 5.2 6.0 66 3.0 SSW 32 41 17 22 1021.0 1021.3 0.0
25/02:00pm 12.0 5.0 6.1 67 2.9 SSW 32 41 17 22 1021.0 1021.3 0.0
25/01:30pm 12.7 5.6 5.6 62 3.4 S 32 41 17 22 1020.7 1020.9 0.0
25/01:00pm 12.5 5.3 5.2 61 3.5 S 32 43 17 23 1020.6 1020.8 0.0
25/12:30pm 13.1 5.8 5.5 60 3.7 S 33 39 18 21 1020.7 1020.9 0.0
25/12:00pm 12.8 5.6 4.8 58 3.8 S 32 39 17 21 1020.8 1021.0 0.0
25/11:30am 12.4 5.1 4.4 58 3.8 S 32 41 17 22 1021.1 1021.4 0.0
25/11:00am 12.4 5.2 4.9 60 3.5 S 32 41 17 22 1021.3 1021.6 0.0
25/10:30am 11.6 4.1 4.3 61 3.4 S 33 46 18 25 1021.5 1021.8 0.0
25/10:00am 10.7 2.8 4.4 65 2.9 S 35 48 19 26 1021.5 1021.8 0.0
25/09:30am 10.8 3.0 5.1 68 2.7 S 35 44 19 24 1021.3 1021.6 0.0
25/09:00am 10.4 5.1 4.8 68 2.6 S 22 32 12 17 1021.3 1021.6 0.0
25/08:30am 9.7 3.9 4.5 70 2.4 SSE 24 33 13 18 1021.0 1021.3 0.0
25/08:00am 9.2 4.2 4.4 72 2.2 SSE 20 32 11 17 1020.7 1020.9 0.0
25/07:30am 7.8 3.2 3.7 75 1.8 SSE 17 22 9 12 1020.4 1020.6 0.0
25/07:00am 7.5 1.5 3.6 76 1.7 SSE 24 35 13 19 1020.2 1020.4 0.0
25/06:33am 7.7 0.6 3.7 76 1.8 S 30 48 16 26 1019.9 1020.1 0.0
25/06:30am 7.6 0.9 3.6 76 1.8 S 28 37 15 20 1019.7 1020.0 0.0
25/06:00am 7.7 0.2 3.4 74 1.9 S 32 46 17 25 1019.6 1019.9 0.0
25/05:30am 8.0 0.3 3.5 73 2.0 S 33 48 18 26 1019.2 1019.4 0.0
25/05:00am 8.1 1.7 3.4 72 2.1 S 26 41 14 22 1019.1 1019.3 0.0
25/04:30am 8.2 1.4 3.3 71 2.2 S 28 39 15 21 1019.0 1019.2 0.0
25/04:15am 8.3 1.2 3.4 71 2.2 S 30 48 16 26 1019.0 1019.2 0.0
25/04:00am 8.0 1.3 3.5 73 2.0 S 28 41 15 22 1019.1 1019.3 0.0
25/03:30am 8.0 1.7 3.5 73 2.0 S 26 39 14 21 1019.0 1019.2 0.0
25/03:00am 8.1 1.0 3.4 72 2.1 S 30 43 16 23 1018.9 1019.1 0.0
25/02:45am 8.1 1.0 3.4 72 2.1 S 30 48 16 26 1018.8 1019.0 0.0
25/02:30am 8.0 0.9 3.7 74 1.9 S 30 39 16 21 1018.7 1018.9 0.0
25/02:00am 8.0 1.4 4.0 76 1.8 S 28 37 15 20 1018.7 1018.9 0.0
25/01:30am 7.9 1.6 3.9 76 1.8 S 26 39 14 21 1018.8 1019.0 0.0
25/01:21am 7.8 1.2 4.2 78 1.6 S 28 39 15 21 1018.8 1019.0 0.0
25/01:00am 5.0 1.8 3.2 88 0.8 SW 9 17 5 9 1018.9 1019.1 0.0
25/12:30am 5.6 2.9 3.8 88 0.8 ENE 7 9 4 5 1018.6 1018.8 0.0
25/12:00am 5.0 1.9 3.5 90 0.6 NW 9 11 5 6 1018.7 1018.9 0.0
 
Date/Time
EST
Temp
°C
App
Temp
°C
Dew
Point
°C
Rel
Hum
%
Delta-T
°C
Wind Press
QNH
hPa
Press
MSL
hPa
Rain since
9am
mm
Dir  Spd
km/h
Gust
km/h
Spd
kts
Gust
kts
24/11:30pm 4.6 0.9 2.3 85 1.0 S 11 17 6 9 1018.7 1018.9 0.0
24/11:00pm 5.2 2.4 3.1 86 0.9 SE 7 11 4 6 1018.7 1018.9 0.0
24/10:30pm 7.5 2.9 3.9 78 1.6 S 17 22 9 12 1018.7 1018.9 0.0
24/10:00pm 8.5 3.1 4.3 75 1.9 S 22 32 12 17 1018.6 1018.8 0.0
24/09:30pm 8.4 1.4 4.0 74 2.0 S 30 44 16 24 1018.7 1018.9 0.0
24/09:28pm 8.6 1.6 4.0 73 2.1 S 30 48 16 26 1018.6 1018.8 0.0
24/09:00pm 8.6 1.9 3.6 71 2.2 S 28 41 15 22 1018.3 1018.5 0.0
24/08:30pm 9.3 1.7 3.7 68 2.5 S 33 50 18 27 1018.3 1018.5 0.0
24/08:28pm 9.3 1.7 3.7 68 2.5 S 33 43 18 23 1018.3 1018.5 0.0
24/08:00pm 8.6 3.6 3.4 70 2.3 S 19 24 10 13 1018.3 1018.5 0.0
24/07:30pm 8.8 2.8 3.2 68 2.5 SSE 24 32 13 17 1018.2 1018.4 0.0
24/07:00pm 9.1 3.7 2.4 63 2.9 S 20 30 11 16 1018.0 1018.1 0.0
24/06:30pm 8.8 4.4 2.8 66 2.6 S 15 17 8 9 1017.8 1018.0 0.0
24/06:00pm 8.5 4.4 2.3 65 2.7 S 13 17 7 9 1017.8 1018.0 0.0
24/05:30pm 9.3 3.9 2.6 63 2.9 S 20 30 11 16 1017.7 1017.9 0.0
24/05:00pm 9.9 3.0 2.7 61 3.2 S 28 39 15 21 1017.3 1017.5 0.0
24/04:30pm 10.5 3.4 3.5 62 3.2 S 30 48 16 26 1016.9 1017.1 0.0
24/04:12pm 11.5 4.0 3.3 57 3.7 S 32 52 17 28 1016.6 1016.8 0.0
24/04:00pm 11.8 4.7 3.3 56 3.9 S 30 43 16 23 1016.4 1016.5 0.0
24/03:34pm 12.3 4.8 3.5 55 4.1 S 32 50 17 27 1016.0 1016.2 0.0
24/03:30pm 12.2 4.2 3.7 56 3.9 S 35 50 19 27 1016.0 1016.2 0.0
24/03:00pm 12.0 4.2 4.7 61 3.4 SSW 35 52 19 28 1015.6 1015.8 0.0
24/02:30pm 12.0 2.7 5.0 62 3.3 S 43 52 23 28 1015.4 1015.6 0.0
24/02:00pm 12.8 4.4 5.7 62 3.4 SSW 39 52 21 28 1015.2 1015.4 0.0
24/01:30pm 12.9 5.4 4.3 56 4.0 S 33 46 18 25 1015.1 1015.3 0.0
24/01:00pm 13.7 5.8 4.6 54 4.3 S 35 48 19 26 1015.2 1015.4 0.0
24/12:30pm 13.3 5.4 4.2 54 4.3 S 35 48 19 26 1015.4 1015.6 0.0
24/12:00pm 12.3 4.7 3.8 56 3.9 S 33 44 18 24 1015.7 1015.9 0.0
24/11:30am 12.8 5.2 3.7 54 4.2 S 33 52 18 28 1016.0 1016.2 0.0
24/11:14am 12.6 4.7 4.1 56 4.0 S 35 54 19 29 1016.2 1016.3 0.0
24/11:00am 11.9 3.6 4.2 59 3.6 S 37 52 20 28 1016.2 1016.3 0.0
24/10:30am 11.9 3.4 5.1 63 3.2 S 39 52 21 28 1015.9 1016.1 0.0
24/10:00am 11.7 4.0 5.3 65 3.0 S 35 44 19 24 1016.0 1016.2 0.0
24/09:30am 10.7 1.3 5.3 69 2.6 S 44 57 24 31 1015.7 1015.9 0.0
24/09:22am 10.8 3.1 5.3 69 2.6 S 35 54 19 29 1015.8 1016.0 0.0
24/09:00am 11.2 4.8 5.1 66 2.9 S 28 35 15 19 1015.5 1015.7 3.0
24/08:37am 10.6 4.1 4.9 68 2.7 S 28 46 15 25 1015.3 1015.5 3.0
24/08:30am 10.4 3.9 4.8 68 2.6 S 28 35 15 19 1015.3 1015.5 3.0
24/08:00am 9.7 3.7 5.1 73 2.1 S 26 44 14 24 1015.1 1015.3 3.0
24/07:30am 9.5 3.8 5.1 74 2.1 S 24 35 13 19 1014.9 1015.0 3.0
24/07:00am 8.9 4.1 4.9 76 1.8 S 19 28 10 15 1014.4 1014.5 3.0
24/06:30am 8.6 4.6 4.8 77 1.7 S 15 26 8 14 1013.8 1014.0 3.0
24/06:00am 8.8 3.8 4.4 74 2.0 S 20 28 11 15 1013.5 1013.6 3.0
24/05:30am 9.0 6.4 4.2 72 2.2 SE 7 11 4 6 1013.2 1013.3 3.0
24/05:00am 8.7 4.6 4.1 73 2.1 S 15 20 8 11 1013.1 1013.2 3.0
24/04:30am 9.1 3.2 4.1 71 2.3 S 24 35 13 19 1013.0 1013.1 3.0
24/04:00am 9.1 4.0 4.1 71 2.3 SSE 20 30 11 16 1012.9 1013.0 3.0
24/03:30am 9.3 1.8 4.3 71 2.3 S 33 46 18 25 1012.7 1012.8 3.0
24/03:00am 9.3 2.7 4.3 71 2.3 S 28 41 15 22 1012.8 1012.9 3.0
24/02:30am 8.8 3.3 4.2 73 2.1 S 22 37 12 20 1012.9 1013.0 3.0
24/02:00am 8.2 3.3 4.2 76 1.8 S 19 26 10 14 1012.8 1012.9 3.0
24/01:30am 8.0 4.3 4.2 77 1.7 S 13 15 7 8 1012.9 1013.0 3.0
24/01:00am 8.5 5.5 4.1 74 2.0 SE 9 11 5 6 1012.9 1013.0 3.0
24/12:30am 8.6 4.1 4.0 73 2.1 S 17 22 9 12 1012.9 1013.0 3.0
24/12:00am 8.7 3.6 4.1 73 2.1 S 20 30 11 16 1013.0 1013.1 3.0
 
Date/Time
EST
Temp
°C
App
Temp
°C
Dew
Point
°C
Rel
Hum
%
Delta-T
°C
Wind Press
QNH
hPa
Press
MSL
hPa
Rain since
9am
mm
Dir  Spd
km/h
Gust
km/h
Spd
kts
Gust
kts
23/11:30pm 8.8 2.5 4.0 72 2.2 SSW 26 35 14 19 1012.8 1012.9 3.0
23/11:00pm 8.8 2.2 4.2 73 2.1 SSW 28 33 15 18 1012.7 1012.8 3.0
23/10:30pm 8.9 1.6 4.3 73 2.1 SSW 32 39 17 21 1012.8 1012.9 3.0
23/10:00pm 8.7 2.9 4.5 75 1.9 S 24 30 13 16 1012.8 1012.9 3.0
23/09:30pm 8.9 3.1 4.3 73 2.1 S 24 32 13 17 1012.7 1012.8 3.0
23/09:00pm 8.8 3.0 4.4 74 2.0 S 24 32 13 17 1012.7 1012.8 3.0
23/08:30pm 8.8 4.7 4.6 75 1.9 S 15 20 8 11 1012.3 1012.5 3.0
23/08:00pm 8.8 5.5 4.8 76 1.8 S 11 17 6 9 1012.1 1012.3 3.0
23/07:30pm 9.0 6.6 5.4 78 1.7 SSE 7 13 4 7 1011.9 1012.0 3.0
23/07:00pm 8.7 6.6 6.8 88 0.9 SSW 7 9 4 5 1011.8 1011.9 3.0
23/06:30pm 9.1 6.6 6.4 83 1.3 SSW 9 9 5 5 1011.6 1011.7 2.8
23/06:00pm 9.9 6.5 5.9 76 1.9 S 13 15 7 8 1011.5 1011.6 2.8
23/05:30pm 9.8 8.2 8.6 92 0.6 SSW 7 9 4 5 1011.2 1011.3 2.8
23/05:00pm 10.0 8.3 8.4 90 0.8 WNW 7 9 4 5 1011.0 1011.1 2.8
23/04:30pm 10.1 8.3 8.0 87 1.0 WNW 7 9 4 5 1010.9 1011.0 2.8
23/04:00pm 10.2 7.3 8.0 86 1.1 NW 13 15 7 8 1010.5 1010.6 2.8
23/03:30pm 10.5 7.2 7.9 84 1.3 NW 15 19 8 10 1010.5 1010.6 2.8
23/03:00pm 11.0 9.1 7.5 79 1.7 W 7 13 4 7 1010.2 1010.3 2.8
23/02:30pm 10.8 7.0 5.6 70 2.5 SSW 15 20 8 11 1010.4 1010.5 2.8
23/02:00pm 11.3 6.6 6.2 71 2.5 S 20 26 11 14 1010.4 1010.5 2.8
23/01:30pm 11.1 8.1 5.8 70 2.5 SSW 11 17 6 9 1010.4 1010.5 2.8
23/01:00pm 10.5 7.4 7.4 81 1.5 SW 13 19 7 10 1010.4 1010.5 2.8
23/12:30pm 9.8 7.1 7.2 84 1.3 S 11 15 6 8 1010.8 1010.9 2.6
23/12:00pm 9.9 5.8 6.4 79 1.7 S 17 22 9 12 1011.2 1011.3 2.2
23/11:30am 10.0 5.3 6.2 77 1.8 S 20 26 11 14 1011.5 1011.6 2.0
23/11:00am 9.9 5.7 5.9 76 1.9 S 17 20 9 11 1011.7 1011.8 1.8
23/10:30am 9.3 6.0 6.4 82 1.4 S 13 17 7 9 1012.0 1012.1 1.8

Other formats

Comma delimited format used in spreadsheet applications
http://www.bom.gov.au/fwo/IDN60801/IDN60801.94926.axf

JavaScript Object Notation format (JSON) in row-major order
http://www.bom.gov.au/fwo/IDN60801/IDN60801.94926.json

Data quality

Most of these data are generated automatically and are frequently updated. Quality checks on data are not normally performed. It is possible for incorrect values to appear. Refer to information at About Latest Weather Observations and please check the disclaimer before using these data.